Time;durP1;ratioP1;P1;durP2;ratioP2;P2;SDS_P1;SDS_P2;PMS_P1;PMS_P2;Temp;Humidity;BMP_temperature;BMP_pressure;BME280_temperature;BME280_humidity;BME280_pressure;Samples;Min_cycle;Max_cycle;Signal;HPM_P1;HPM_P2
2022/08/02 00:01:41;;;;;;;1.70;1.60;;;18.40;99.90;;;;;;4943930;28;20215;-78
2022/08/02 00:04:07;;;;;;;1.70;1.60;;;18.40;99.90;;;;;;4944045;28;20274;-77
2022/08/02 00:06:33;;;;;;;1.70;1.60;;;18.30;99.90;;;;;;5015411;23;20318;-77
2022/08/02 00:08:59;;;;;;;1.90;1.60;;;18.20;99.90;;;;;;4975675;28;20552;-77
2022/08/02 00:11:25;;;;;;;1.57;1.47;;;18.00;99.90;;;;;;4959695;28;20274;-77
2022/08/02 00:13:51;;;;;;;1.70;1.60;;;17.90;99.90;;;;;;4959731;28;20172;-77
2022/08/02 00:16:16;;;;;;;2.27;1.70;;;17.90;99.90;;;;;;4975344;28;20273;-76
2022/08/02 00:18:42;;;;;;;1.80;1.70;;;17.90;99.90;;;;;;4959556;28;20660;-76
2022/08/02 00:21:08;;;;;;;3.27;1.80;;;18.00;99.90;;;;;;4959246;28;20180;-77
2022/08/02 00:23:33;;;;;;;2.10;1.90;;;18.00;99.90;;;;;;4943508;28;20262;-77
2022/08/02 00:25:59;;;;;;;1.80;1.70;;;18.10;99.90;;;;;;4943431;28;20204;-77
2022/08/02 00:28:25;;;;;;;1.60;1.50;;;18.10;99.90;;;;;;4943174;28;20264;-77
2022/08/02 00:30:51;;;;;;;1.70;1.60;;;18.00;99.90;;;;;;4959449;28;20180;-77
2022/08/02 00:33:17;;;;;;;2.83;1.70;;;18.00;99.90;;;;;;4959414;28;20664;-77
2022/08/02 00:35:46;;;;;;;2.40;1.60;;;17.80;99.90;;;;;;4959550;28;20287;-77
2022/08/02 00:38:12;;;;;;;1.77;1.67;;;17.80;99.90;;;;;;4959852;28;20634;-77
2022/08/02 00:40:37;;;;;;;2.07;1.87;;;17.60;99.90;;;;;;4975287;28;20183;-77
2022/08/02 00:43:08;;;;;;;1.80;1.70;;;17.70;99.90;;;;;;4992895;28;20263;-77
2022/08/02 00:45:35;;;;;;;1.80;1.70;;;17.70;99.90;;;;;;4975117;28;20223;-77
2022/08/02 00:48:01;;;;;;;1.50;1.40;;;17.70;99.90;;;;;;4959326;28;20207;-77
2022/08/02 00:50:28;;;;;;;1.37;1.27;;;17.60;99.90;;;;;;4992579;28;20183;-77
2022/08/02 00:52:54;;;;;;;1.80;1.70;;;17.50;99.90;;;;;;4975269;28;20206;-77
2022/08/02 00:55:20;;;;;;;1.70;1.60;;;17.50;99.90;;;;;;4977547;28;20230;-77
2022/08/02 00:57:46;;;;;;;1.80;1.70;;;17.40;99.90;;;;;;4979228;28;20187;-77
2022/08/02 01:00:12;;;;;;;2.37;1.80;;;17.40;99.90;;;;;;4963174;28;20560;-77
2022/08/02 01:02:38;;;;;;;1.70;1.60;;;17.40;99.90;;;;;;4979115;28;20180;-77
2022/08/02 01:05:04;;;;;;;2.10;1.80;;;17.40;99.90;;;;;;4962797;28;20230;-77
2022/08/02 01:07:30;;;;;;;1.60;1.50;;;17.40;99.90;;;;;;4962532;28;20211;-76
2022/08/02 01:09:55;;;;;;;1.80;1.70;;;17.30;99.90;;;;;;4963008;28;20238;-77
2022/08/02 01:12:21;;;;;;;1.87;1.77;;;17.30;99.90;;;;;;4962892;28;20183;-77
2022/08/02 01:14:49;;;;;;;1.70;1.60;;;17.20;99.90;;;;;;4962772;28;20206;-77
2022/08/02 01:17:30;;;;;;;1.80;1.70;;;17.30;99.90;;;;;;4978550;28;20769;-77
2022/08/02 01:20:16;;;;;;;1.90;1.80;;;17.20;99.90;;;;;;4978695;28;20207;-76
2022/08/02 01:23:08;;;;;;;2.03;1.70;;;17.20;99.90;;;;;;4978863;28;20187;-76
2022/08/02 01:26:12;;;;;;;2.00;1.90;;;17.30;99.90;;;;;;4978690;28;20200;-77
2022/08/02 01:29:12;;;;;;;1.90;1.80;;;17.20;99.90;;;;;;4939302;28;20190;-77
2022/08/02 01:32:11;;;;;;;1.80;1.70;;;17.10;99.90;;;;;;4974699;28;20198;-77
2022/08/02 01:34:52;;;;;;;2.30;1.90;;;17.10;99.90;;;;;;4978624;28;20186;-77
2022/08/02 01:37:24;;;;;;;1.80;1.70;;;17.20;99.90;;;;;;4962823;28;20175;-77
2022/08/02 01:39:56;;;;;;;1.90;1.70;;;17.10;99.90;;;;;;4978561;28;20717;-77
2022/08/02 01:42:24;;;;;;;3.20;1.90;;;17.00;99.90;;;;;;4962277;28;20178;-77
2022/08/02 01:44:52;;;;;;;2.10;1.87;;;16.90;99.90;;;;;;4962366;28;20206;-76
2022/08/02 01:47:23;;;;;;;2.40;1.60;;;16.90;99.90;;;;;;4978267;28;20208;-77
2022/08/02 01:49:53;;;;;;;2.53;1.50;;;16.70;99.90;;;;;;4962341;28;20203;-76
2022/08/02 01:52:22;;;;;;;1.80;1.60;;;16.60;99.90;;;;;;4978198;28;20202;-77
2022/08/02 01:55:09;;;;;;;1.70;1.60;;;16.50;99.90;;;;;;4977972;28;20251;-77
2022/08/02 01:57:51;;;;;;;2.00;1.90;;;16.40;99.90;;;;;;4981339;28;20661;-77
2022/08/02 02:00:17;;;;;;;1.97;1.87;;;16.50;99.90;;;;;;4978021;28;20183;-76
2022/08/02 02:02:46;;;;;;;2.10;1.90;;;16.70;99.90;;;;;;4946103;28;20199;-76
2022/08/02 02:05:19;;;;;;;1.90;1.80;;;16.80;99.90;;;;;;4977890;28;20258;-76
2022/08/02 02:07:49;;;;;;;1.50;1.40;;;16.80;99.90;;;;;;4995251;28;20199;-77
2022/08/02 02:10:19;;;;;;;2.10;1.97;;;16.80;99.90;;;;;;4962284;28;20182;-77
2022/08/02 02:12:48;;;;;;;1.80;1.70;;;16.60;99.90;;;;;;4977858;28;20230;-77
2022/08/02 02:15:14;;;;;;;2.20;1.90;;;16.70;99.90;;;;;;4977863;28;20196;-76
2022/08/02 02:17:46;;;;;;;1.97;1.87;;;16.70;99.90;;;;;;4961440;28;20188;-77
2022/08/02 02:20:14;;;;;;;2.63;1.80;;;16.70;99.90;;;;;;4977762;28;20202;-76
2022/08/02 02:22:40;;;;;;;2.80;1.80;;;16.50;99.90;;;;;;4977703;28;20175;-77
2022/08/02 02:25:08;;;;;;;2.23;1.90;;;16.50;99.90;;;;;;4961515;28;20546;-77
2022/08/02 02:27:35;;;;;;;2.13;1.80;;;16.60;99.90;;;;;;4961735;28;20246;-76
2022/08/02 02:30:03;;;;;;;1.70;1.60;;;16.50;99.90;;;;;;4977546;28;20263;-77
2022/08/02 02:32:29;;;;;;;1.90;1.80;;;16.50;99.90;;;;;;4977369;28;20182;-77
2022/08/02 02:34:57;;;;;;;2.00;1.80;;;16.50;99.90;;;;;;4961724;28;20196;-77
2022/08/02 02:37:25;;;;;;;1.83;1.73;;;16.30;99.90;;;;;;4945557;28;20180;-77
2022/08/02 02:39:53;;;;;;;2.13;1.70;;;16.30;99.90;;;;;;4977438;28;20655;-77
2022/08/02 02:42:25;;;;;;;1.80;1.70;;;16.20;99.90;;;;;;4977316;28;20553;-77
2022/08/02 02:44:51;;;;;;;1.97;1.77;;;16.30;99.90;;;;;;4961415;28;20207;-77
2022/08/02 02:47:18;;;;;;;2.20;1.93;;;16.40;99.90;;;;;;4961183;28;20219;-77
2022/08/02 02:49:46;;;;;;;3.00;1.70;;;16.40;99.90;;;;;;4977422;28;20180;-77
2022/08/02 02:52:15;;;;;;;2.97;1.87;;;16.20;99.90;;;;;;4977044;28;20187;-77
2022/08/02 02:54:42;;;;;;;1.80;1.70;;;16.10;99.90;;;;;;4945291;28;20175;-77
2022/08/02 02:57:09;;;;;;;1.97;1.87;;;16.10;99.90;;;;;;4944963;28;20210;-77
2022/08/02 02:59:37;;;;;;;1.70;1.60;;;16.20;99.90;;;;;;4976906;28;20183;-77
2022/08/02 03:02:05;;;;;;;1.90;1.80;;;16.20;99.90;;;;;;4976909;28;20175;-77
2022/08/02 03:04:31;;;;;;;2.27;2.07;;;16.20;99.90;;;;;;4960915;28;20658;-77
2022/08/02 03:06:58;;;;;;;3.47;1.93;;;16.10;99.90;;;;;;4960743;28;20204;-77
2022/08/02 03:09:24;;;;;;;2.50;2.00;;;16.20;99.90;;;;;;4976704;28;20171;-77
2022/08/02 03:11:51;;;;;;;2.20;2.00;;;16.30;99.90;;;;;;4944653;28;20188;-77
2022/08/02 03:14:17;;;;;;;1.93;1.83;;;16.30;99.90;;;;;;4960909;28;20183;-77
2022/08/02 03:16:45;;;;;;;1.93;1.83;;;16.40;99.90;;;;;;4944048;28;20196;-77
2022/08/02 03:19:11;;;;;;;2.33;2.13;;;16.50;99.90;;;;;;4944580;28;20180;-77
2022/08/02 03:21:37;;;;;;;2.17;1.93;;;16.50;99.90;;;;;;4960511;28;20175;-77
2022/08/02 03:24:03;;;;;;;2.10;1.90;;;16.40;99.90;;;;;;4960572;28;20179;-77
2022/08/02 03:26:29;;;;;;;2.10;2.00;;;16.40;99.90;;;;;;4959992;28;20192;-77
2022/08/02 03:28:55;;;;;;;2.17;1.97;;;16.30;99.90;;;;;;4976626;28;20195;-77
2022/08/02 03:31:20;;;;;;;2.30;2.10;;;16.10;99.90;;;;;;4944521;28;20250;-77
2022/08/02 03:33:46;;;;;;;2.53;2.30;;;16.10;99.90;;;;;;4960353;28;20194;-77
2022/08/02 03:36:16;;;;;;;2.23;2.03;;;16.10;99.90;;;;;;4960056;28;20195;-77
2022/08/02 03:38:43;;;;;;;2.80;1.90;;;16.20;99.90;;;;;;4976668;28;20639;-77
2022/08/02 03:41:11;;;;;;;2.30;2.10;;;16.20;99.90;;;;;;4960213;28;20270;-77
2022/08/02 03:43:38;;;;;;;2.13;2.00;;;16.20;99.90;;;;;;4975910;28;20188;-77
2022/08/02 03:46:06;;;;;;;1.97;1.87;;;16.30;99.90;;;;;;4960246;28;20238;-77
2022/08/02 03:48:33;;;;;;;2.50;2.10;;;16.00;99.90;;;;;;4960234;28;20298;-77
2022/08/02 03:50:59;;;;;;;2.30;2.10;;;15.90;99.90;;;;;;4944339;28;20184;-77
2022/08/02 03:53:25;;;;;;;1.80;1.70;;;15.80;99.90;;;;;;4959980;28;20184;-77
2022/08/02 03:55:52;;;;;;;2.27;2.10;;;15.90;99.90;;;;;;4959836;28;20215;-77
2022/08/02 03:58:19;;;;;;;2.30;2.10;;;15.80;99.90;;;;;;4959915;28;20274;-77
2022/08/02 04:00:45;;;;;;;2.00;1.90;;;15.80;99.90;;;;;;4975903;28;20541;-77
2022/08/02 04:03:11;;;;;;;3.47;1.90;;;15.80;99.90;;;;;;4959812;28;20188;-77
2022/08/02 04:05:36;;;;;;;2.20;2.00;;;15.80;99.90;;;;;;4959664;28;20223;-77
2022/08/02 04:08:02;;;;;;;2.30;2.10;;;15.80;99.90;;;;;;4993013;28;20204;-77
2022/08/02 04:10:28;;;;;;;1.80;1.70;;;15.70;99.90;;;;;;4959620;28;20184;-77
2022/08/02 04:12:55;;;;;;;2.00;1.87;;;15.60;99.90;;;;;;4959609;28;20179;-78
2022/08/02 04:15:22;;;;;;;1.73;1.63;;;15.50;99.90;;;;;;4943749;28;20233;-77
2022/08/02 04:17:58;;;;;;;1.87;1.77;;;15.30;99.90;;;;;;4975477;28;20668;-77
2022/08/02 04:20:28;;;;;;;2.23;2.03;;;15.40;99.90;;;;;;4959524;28;20242;-77
2022/08/02 04:23:05;;;;;;;2.30;2.10;;;15.50;99.90;;;;;;4975461;28;20205;-77
2022/08/02 04:25:32;;;;;;;2.40;2.20;;;15.70;99.90;;;;;;4975447;28;20209;-77
2022/08/02 04:27:59;;;;;;;1.90;1.80;;;15.80;99.90;;;;;;4959203;28;20686;-77
2022/08/02 04:30:26;;;;;;;1.90;1.80;;;15.80;99.90;;;;;;4975495;28;20556;-77
2022/08/02 04:32:53;;;;;;;2.13;2.03;;;15.60;99.90;;;;;;4975478;28;20176;-77
2022/08/02 04:35:19;;;;;;;2.47;2.00;;;15.70;99.90;;;;;;4975577;28;20195;-77
2022/08/02 04:37:45;;;;;;;2.33;2.00;;;15.70;99.90;;;;;;4943220;28;20709;-77
2022/08/02 04:40:11;;;;;;;2.33;1.80;;;15.70;99.90;;;;;;4975304;28;20191;-77
2022/08/02 04:42:38;;;;;;;2.17;2.07;;;15.70;99.90;;;;;;4959516;28;20179;-77
2022/08/02 04:45:06;;;;;;;2.20;2.00;;;15.70;99.90;;;;;;4975019;28;20286;-77
2022/08/02 04:47:33;;;;;;;4.33;2.00;;;15.80;99.90;;;;;;4992467;28;20208;-77
2022/08/02 04:49:58;;;;;;;2.43;2.20;;;15.80;99.90;;;;;;4975172;28;20175;-77
2022/08/02 04:52:24;;;;;;;2.20;2.00;;;15.80;99.90;;;;;;4975311;28;20233;-77
2022/08/02 04:54:50;;;;;;;2.40;2.20;;;15.80;99.90;;;;;;4959040;28;20207;-77
2022/08/02 05:00:01;;;;;;;2.93;2.17;;;16.00;99.90;;;;;;4993011;28;20265;-77
2022/08/02 05:02:27;;;;;;;2.50;2.30;;;16.10;99.90;;;;;;4959232;28;20187;-78
2022/08/02 05:04:52;;;;;;;2.53;2.33;;;16.10;99.90;;;;;;4943114;28;20243;-77
2022/08/02 05:07:18;;;;;;;2.60;2.40;;;16.20;99.90;;;;;;4994233;28;20207;-76
2022/08/02 05:09:43;;;;;;;3.53;2.57;;;16.10;99.90;;;;;;4979311;28;20235;-76
2022/08/02 05:12:09;;;;;;;3.33;3.03;;;16.20;99.90;;;;;;4963096;28;20255;-76
2022/08/02 05:14:34;;;;;;;3.30;2.83;;;16.20;99.90;;;;;;4946349;28;20184;-76
2022/08/02 05:17:00;;;;;;;3.10;2.63;;;16.10;99.90;;;;;;4946181;28;20585;-76
2022/08/02 05:19:26;;;;;;;3.33;3.03;;;16.10;99.90;;;;;;4962576;28;20188;-76
2022/08/02 05:21:51;;;;;;;2.80;2.60;;;16.00;99.90;;;;;;4962831;28;20606;-76
2022/08/02 05:24:17;;;;;;;4.40;2.70;;;15.90;99.90;;;;;;4978552;28;20280;-76
2022/08/02 05:26:43;;;;;;;2.93;2.63;;;15.90;99.90;;;;;;4961541;28;20203;-76
2022/08/02 05:29:08;;;;;;;2.90;2.60;;;16.00;99.90;;;;;;4962558;28;20238;-76
2022/08/02 05:31:34;;;;;;;3.03;2.70;;;16.00;99.90;;;;;;4962530;28;20176;-76
2022/08/02 05:33:59;;;;;;;3.07;2.80;;;16.00;99.90;;;;;;4946873;28;20188;-77
2022/08/02 05:36:25;;;;;;;2.97;2.77;;;16.10;99.90;;;;;;4946032;28;20291;-77
2022/08/02 05:38:51;;;;;;;2.93;2.60;;;16.10;99.90;;;;;;4962017;28;20183;-77
2022/08/02 05:41:18;;;;;;;3.30;2.97;;;16.20;99.90;;;;;;4964523;28;20634;-78
2022/08/02 05:43:44;;;;;;;3.57;3.27;;;16.30;99.90;;;;;;4950056;28;20646;-77
2022/08/02 05:46:10;;;;;;;3.43;3.20;;;16.40;99.90;;;;;;4982010;28;20556;-77
2022/08/02 05:48:35;;;;;;;2.97;2.77;;;16.50;99.90;;;;;;4948222;28;20214;-77
2022/08/02 05:51:38;;;;;;;3.40;3.10;;;16.70;99.90;;;;;;4949103;28;20194;-77
2022/08/02 05:54:33;;;;;;;3.70;3.40;;;16.80;99.90;;;;;;4978550;28;20180;-77
2022/08/02 05:57:18;;;;;;;3.40;3.10;;;17.00;99.90;;;;;;4998329;28;20170;-77
2022/08/02 05:59:52;;;;;;;3.40;3.10;;;17.00;99.90;;;;;;4981639;28;20535;-77
2022/08/02 06:02:24;;;;;;;3.97;3.67;;;17.10;99.90;;;;;;4998913;28;20212;-77
2022/08/02 06:07:19;;;;;;;3.33;3.13;;;17.10;99.90;;;;;;4974323;28;20308;-76
2022/08/02 06:09:47;;;;;;;3.77;3.47;;;17.00;99.90;;;;;;4942800;28;20179;-76
2022/08/02 06:12:16;;;;;;;3.43;3.13;;;17.00;99.90;;;;;;4926921;28;20184;-77
2022/08/02 06:14:42;;;;;;;3.30;3.00;;;16.90;99.90;;;;;;4974598;28;20551;-77
2022/08/02 06:17:08;;;;;;;2.57;2.37;;;17.30;99.90;;;;;;4926693;28;20215;-77
2022/08/02 06:19:37;;;;;;;7.40;3.90;;;17.80;99.90;;;;;;4958388;28;20185;-77
2022/08/02 06:22:13;;;;;;;2.53;2.33;;;18.20;99.90;;;;;;4958755;28;20179;-77
2022/08/02 06:24:43;;;;;;;3.40;3.20;;;18.40;99.90;;;;;;4943897;28;20682;-77
2022/08/02 06:27:12;;;;;;;3.90;3.60;;;18.10;99.90;;;;;;4941976;28;20311;-77
2022/08/02 06:29:41;;;;;;;2.37;1.97;;;17.80;99.90;;;;;;4942393;28;20662;-77
2022/08/02 06:32:08;;;;;;;2.00;1.80;;;17.80;99.90;;;;;;4958520;28;20179;-77
2022/08/02 06:34:40;;;;;;;2.27;2.07;;;18.10;99.90;;;;;;4942167;28;20176;-77
2022/08/02 06:37:30;;;;;;;3.30;1.87;;;18.30;99.90;;;;;;4957873;28;20200;-77
2022/08/02 06:40:07;;;;;;;2.20;1.87;;;18.30;99.90;;;;;;4975351;28;20176;-77
2022/08/02 06:42:54;;;;;;;3.07;2.13;;;18.40;99.90;;;;;;4974007;28;20187;-77
2022/08/02 06:45:20;;;;;;;2.00;1.80;;;18.20;99.90;;;;;;4975114;28;20208;-77
2022/08/02 06:47:46;;;;;;;1.80;1.60;;;18.20;99.90;;;;;;4941893;28;20212;-77
2022/08/02 06:50:11;;;;;;;2.53;2.33;;;18.70;99.90;;;;;;4926111;28;20176;-77
2022/08/02 06:52:37;;;;;;;2.50;2.30;;;18.90;99.90;;;;;;4956920;28;20200;-77
2022/08/02 06:55:05;;;;;;;3.57;3.27;;;18.90;99.90;;;;;;4957696;28;20551;-77
2022/08/02 06:57:31;;;;;;;3.43;3.13;;;18.90;99.90;;;;;;4974906;28;20205;-77
2022/08/02 07:00:00;;;;;;;2.57;2.37;;;18.90;99.90;;;;;;4975023;28;20168;-77
2022/08/02 07:02:26;;;;;;;2.53;2.33;;;19.40;99.90;;;;;;4942000;28;20180;-77
2022/08/02 07:04:53;;;;;;;3.80;2.80;;;19.30;99.90;;;;;;4941643;28;20187;-77
2022/08/02 07:07:18;;;;;;;3.40;2.60;;;19.10;99.90;;;;;;4925657;28;20210;-77
2022/08/02 07:09:44;;;;;;;2.40;2.20;;;19.00;99.90;;;;;;4957550;28;20172;-77
2022/08/02 07:12:10;;;;;;;2.30;2.10;;;19.10;99.90;;;;;;4941404;28;20663;-77
2022/08/02 07:14:35;;;;;;;2.33;2.10;;;19.00;99.90;;;;;;4941579;28;20172;-77
2022/08/02 07:17:02;;;;;;;3.13;2.70;;;19.10;99.90;;;;;;4941369;28;20196;-77
2022/08/02 07:19:27;;;;;;;3.20;2.80;;;19.20;99.90;;;;;;4925561;28;20180;-77
2022/08/02 07:21:53;;;;;;;3.57;3.10;;;19.20;99.90;;;;;;4925781;28;20191;-77
2022/08/02 07:24:18;;;;;;;3.07;2.77;;;19.20;99.90;;;;;;4925457;28;20193;-77
2022/08/02 07:26:44;;;;;;;2.30;2.10;;;19.30;99.90;;;;;;4925431;28;20694;-77
2022/08/02 07:29:09;;;;;;;2.97;2.70;;;19.70;99.90;;;;;;4957146;28;20211;-77
2022/08/02 07:31:35;;;;;;;3.37;3.07;;;19.90;99.90;;;;;;4925427;28;20180;-77
2022/08/02 07:34:01;;;;;;;4.03;2.97;;;20.00;99.90;;;;;;4941197;28;20204;-77
2022/08/02 07:36:26;;;;;;;2.70;2.50;;;19.90;99.90;;;;;;4956760;28;20284;-77
2022/08/02 07:38:52;;;;;;;2.57;1.90;;;19.90;99.90;;;;;;4925086;28;20531;-77
2022/08/02 07:41:17;;;;;;;2.70;2.45;;;20.20;99.90;;;;;;4925308;28;20227;-77
2022/08/02 07:43:43;;;;;;;4.28;2.30;;;20.30;99.90;;;;;;4924813;28;20200;-77
2022/08/02 07:46:09;;;;;;;2.35;2.03;;;20.30;99.90;;;;;;4940979;28;20196;-77
2022/08/02 07:48:34;;;;;;;2.35;1.95;;;20.50;99.90;;;;;;4925317;28;20204;-77
2022/08/02 07:51:00;;;;;;;2.17;1.90;;;20.60;99.90;;;;;;4956855;28;20184;-77
2022/08/02 07:53:25;;;;;;;2.25;1.60;;;20.60;99.90;;;;;;4940671;28;20195;-77
2022/08/02 07:55:51;;;;;;;2.28;2.08;;;20.60;99.90;;;;;;4940975;28;20207;-77
2022/08/02 07:58:16;;;;;;;2.10;1.90;;;20.70;99.90;;;;;;4924711;28;20617;-77
2022/08/02 08:00:43;;;;;;;1.70;1.60;;;20.80;99.90;;;;;;4924940;28;20181;-77
2022/08/02 08:03:08;;;;;;;1.50;1.40;;;21.00;99.90;;;;;;4940310;28;20674;-77
2022/08/02 08:05:35;;;;;;;1.70;1.60;;;21.10;99.90;;;;;;4956565;28;20212;-77
2022/08/02 08:08:00;;;;;;;1.70;1.60;;;21.20;99.90;;;;;;4940349;28;20204;-77
2022/08/02 08:10:26;;;;;;;2.10;1.70;;;21.30;99.90;;;;;;4940680;28;20239;-77
2022/08/02 08:12:51;;;;;;;2.15;1.70;;;21.40;99.90;;;;;;4924766;28;20242;-77
2022/08/02 08:15:17;;;;;;;2.20;2.00;;;21.50;99.90;;;;;;4924623;28;20228;-77
2022/08/02 08:17:42;;;;;;;1.73;1.63;;;21.70;99.90;;;;;;4924365;28;20264;-77
2022/08/02 08:20:08;;;;;;;1.50;1.40;;;21.80;99.90;;;;;;4940455;28;20208;-77
2022/08/02 08:22:34;;;;;;;1.80;1.70;;;22.00;99.90;;;;;;4956232;28;20172;-77
2022/08/02 08:25:00;;;;;;;1.58;1.48;;;22.20;99.90;;;;;;4924397;28;20243;-77
2022/08/02 08:27:25;;;;;;;2.25;1.70;;;22.10;99.90;;;;;;4955911;28;20208;-77
2022/08/02 08:29:51;;;;;;;1.88;1.77;;;22.10;99.90;;;;;;4924462;28;20176;-77
2022/08/02 08:32:17;;;;;;;1.70;1.60;;;22.10;99.90;;;;;;4940399;28;20683;-77
2022/08/02 08:34:44;;;;;;;1.90;1.75;;;22.30;99.90;;;;;;4924546;28;20276;-77
2022/08/02 08:37:09;;;;;;;2.20;1.50;;;22.50;99.90;;;;;;4939908;28;20214;-77
2022/08/02 08:39:36;;;;;;;1.65;1.33;;;22.60;99.90;;;;;;4924292;28;20266;-77
2022/08/02 08:42:05;;;;;;;1.30;1.20;;;22.80;99.90;;;;;;4940179;28;20185;-77
2022/08/02 08:44:32;;;;;;;1.50;1.23;;;22.80;99.90;;;;;;4940076;28;20535;-77
2022/08/02 08:47:01;;;;;;;1.30;1.20;;;22.90;99.90;;;;;;4924257;28;20212;-77
2022/08/02 08:49:35;;;;;;;2.15;1.35;;;23.00;99.90;;;;;;4924395;28;20184;-77
2022/08/02 08:52:05;;;;;;;2.10;1.60;;;23.10;99.90;;;;;;4940998;28;20550;-77
2022/08/02 08:54:34;;;;;;;5.28;1.88;;;23.10;99.90;;;;;;4956172;28;20264;-77
2022/08/02 08:57:04;;;;;;;1.35;1.25;;;23.20;99.90;;;;;;4939901;28;20200;-77
2022/08/02 08:59:29;;;;;;;1.30;1.20;;;23.30;99.90;;;;;;4956085;28;20176;-77
2022/08/02 09:01:56;;;;;;;0.93;0.93;;;23.30;99.90;;;;;;4956245;28;20182;-77
2022/08/02 09:04:22;;;;;;;1.38;1.25;;;23.50;99.90;;;;;;4955867;28;20207;-77
2022/08/02 09:06:47;;;;;;;1.25;1.10;;;23.40;99.90;;;;;;4939679;28;20251;-77
2022/08/02 09:09:13;;;;;;;0.77;0.77;;;23.70;99.90;;;;;;4956006;28;20184;-77
2022/08/02 09:11:39;;;;;;;0.90;0.90;;;23.90;99.90;;;;;;4923993;28;20172;-77
2022/08/02 09:14:04;;;;;;;1.00;1.00;;;23.90;99.90;;;;;;4955933;28;20227;-77
2022/08/02 09:16:36;;;;;;;0.90;0.90;;;24.00;99.90;;;;;;4941978;28;20196;-77
2022/08/02 09:19:18;;;;;;;1.10;1.05;;;24.10;99.90;;;;;;4943912;28;20177;-77
2022/08/02 09:21:45;;;;;;;0.90;0.90;;;24.10;99.90;;;;;;4959665;28;20534;-77
2022/08/02 09:24:19;;;;;;;0.80;0.80;;;24.30;99.90;;;;;;4959428;28;20168;-77
2022/08/02 09:26:46;;;;;;;1.10;1.00;;;24.50;99.90;;;;;;4943196;28;20196;-77
2022/08/02 09:29:12;;;;;;;1.95;1.08;;;24.50;99.90;;;;;;4959400;28;20179;-77
2022/08/02 09:31:37;;;;;;;2.05;1.30;;;24.60;99.90;;;;;;4943406;28;20185;-77
2022/08/02 09:34:03;;;;;;;1.25;1.15;;;24.60;99.90;;;;;;4943293;28;20180;-77
2022/08/02 09:36:41;;;;;;;2.72;1.10;;;24.60;99.90;;;;;;4959051;28;20199;-77
2022/08/02 09:39:09;;;;;;;1.20;1.10;;;24.80;99.90;;;;;;4927546;28;20514;-77
2022/08/02 09:41:39;;;;;;;0.90;0.90;;;24.90;99.90;;;;;;4958926;28;20177;-77
2022/08/02 09:44:06;;;;;;;2.42;1.10;;;25.10;99.90;;;;;;4959529;28;20639;-77
2022/08/02 09:46:36;;;;;;;1.60;1.20;;;25.30;99.90;;;;;;4958949;28;20210;-77
2022/08/02 09:49:04;;;;;;;1.45;1.27;;;25.50;99.90;;;;;;4943357;28;20276;-77
2022/08/02 09:51:47;;;;;;;1.05;0.98;;;25.50;99.90;;;;;;4959056;28;20181;-77
2022/08/02 09:54:18;;;;;;;0.90;0.90;;;25.70;99.90;;;;;;4958915;28;20177;-77
2022/08/02 09:56:53;;;;;;;1.05;0.98;;;25.80;99.90;;;;;;4942696;28;20715;-77
2022/08/02 09:59:21;;;;;;;1.00;1.00;;;25.90;99.90;;;;;;4927783;28;20552;-77
2022/08/02 10:01:48;;;;;;;1.20;1.10;;;25.90;99.90;;;;;;4958891;28;20203;-77
2022/08/02 10:04:17;;;;;;;1.13;1.05;;;26.00;98.20;;;;;;4958828;28;20168;-77
2022/08/02 10:06:43;;;;;;;0.90;0.90;;;26.10;99.00;;;;;;4975788;28;20263;-77
2022/08/02 10:09:11;;;;;;;0.93;0.90;;;26.30;98.10;;;;;;4942714;28;20180;-77
2022/08/02 10:11:37;;;;;;;1.10;1.00;;;26.20;97.00;;;;;;4958838;28;20176;-77
2022/08/02 10:14:05;;;;;;;0.90;0.90;;;26.20;96.20;;;;;;4942734;28;20172;-77
2022/08/02 10:16:34;;;;;;;0.80;0.80;;;26.20;95.40;;;;;;4926743;28;20270;-77
2022/08/02 10:19:03;;;;;;;1.17;0.90;;;26.30;95.30;;;;;;4926949;28;20188;-77
2022/08/02 10:21:37;;;;;;;1.42;1.00;;;26.30;95.00;;;;;;4958814;28;20643;-77
2022/08/02 10:24:27;;;;;;;1.00;1.00;;;26.40;95.90;;;;;;4975678;28;20184;-77
2022/08/02 10:26:54;;;;;;;1.10;1.00;;;26.40;95.50;;;;;;4943995;28;20223;-77
2022/08/02 10:29:26;;;;;;;1.25;1.00;;;26.50;93.40;;;;;;4958358;28;20176;-77
2022/08/02 10:31:59;;;;;;;1.15;1.00;;;26.70;92.40;;;;;;4958161;28;20643;-77
2022/08/02 10:34:36;;;;;;;0.90;0.90;;;26.50;91.90;;;;;;4942266;28;20180;-77
2022/08/02 10:37:05;;;;;;;1.02;1.00;;;26.60;92.00;;;;;;4942599;28;20204;-77
2022/08/02 10:39:41;;;;;;;1.10;1.00;;;26.70;90.70;;;;;;4942451;28;20176;-77
2022/08/02 10:42:07;;;;;;;1.00;0.90;;;26.60;89.50;;;;;;4942432;28;20273;-77
2022/08/02 10:44:33;;;;;;;1.00;0.90;;;26.80;90.70;;;;;;4974985;28;20262;-77
2022/08/02 10:47:15;;;;;;;0.80;0.80;;;27.10;90.70;;;;;;4975049;28;20200;-77
2022/08/02 10:50:07;;;;;;;0.60;0.60;;;27.00;84.30;;;;;;4975239;28;20172;-77
2022/08/02 10:52:33;;;;;;;0.80;0.80;;;27.20;83.80;;;;;;4972470;28;20670;-77
2022/08/02 10:55:02;;;;;;;0.75;0.75;;;27.30;76.70;;;;;;4926012;28;20794;-77
2022/08/02 10:57:28;;;;;;;0.73;0.73;;;27.50;76.80;;;;;;4941950;28;20176;-77
2022/08/02 11:00:12;;;;;;;0.63;0.63;;;27.50;72.00;;;;;;4957920;28;20177;-77
2022/08/02 11:02:43;;;;;;;0.80;0.80;;;27.50;67.70;;;;;;4941749;28;20181;-77
2022/08/02 11:05:14;;;;;;;1.30;1.20;;;27.90;74.80;;;;;;4941509;28;20184;-77
2022/08/02 11:07:43;;;;;;;0.85;0.70;;;28.20;74.00;;;;;;4957529;28;20741;-77
2022/08/02 11:10:33;;;;;;;0.90;0.90;;;28.20;60.90;;;;;;4926088;28;20185;-77
2022/08/02 11:13:13;;;;;;;0.60;0.60;;;28.20;63.40;;;;;;4957561;28;20168;-77
2022/08/02 11:16:03;;;;;;;0.93;0.90;;;28.20;63.60;;;;;;4957550;28;20200;-77
2022/08/02 11:18:50;;;;;;;0.90;0.90;;;28.30;62.80;;;;;;4957138;28;20179;-77
2022/08/02 11:21:27;;;;;;;0.88;0.88;;;28.60;62.00;;;;;;4957257;28;20182;-77
2022/08/02 11:23:54;;;;;;;0.80;0.80;;;28.70;62.70;;;;;;4941409;28;20192;-77
2022/08/02 11:26:31;;;;;;;0.73;0.70;;;28.90;59.10;;;;;;4941152;28;20208;-77
2022/08/02 11:29:02;;;;;;;0.55;0.55;;;28.90;60.10;;;;;;4957008;28;20200;-77
2022/08/02 11:31:28;;;;;;;1.95;0.70;;;28.70;55.30;;;;;;4941511;28;20173;-77
2022/08/02 11:33:54;;;;;;;0.75;0.75;;;28.70;56.50;;;;;;4941297;28;20207;-77
2022/08/02 11:36:20;;;;;;;1.02;0.70;;;28.80;59.90;;;;;;4956782;28;20224;-77
2022/08/02 11:38:46;;;;;;;1.60;1.00;;;28.90;58.40;;;;;;4956273;28;20180;-77
2022/08/02 11:41:19;;;;;;;0.90;0.90;;;29.30;60.90;;;;;;4940993;28;20535;-77
2022/08/02 11:43:45;;;;;;;1.00;0.90;;;29.60;58.50;;;;;;4962116;28;20172;-79
2022/08/02 11:46:14;;;;;;;1.00;0.90;;;29.80;57.90;;;;;;4940690;28;20263;-78
2022/08/02 11:51:09;;;;;;;1.20;1.10;;;29.30;54.90;;;;;;4992307;28;20207;-76
2022/08/02 11:53:44;;;;;;;1.20;1.10;;;29.20;53.50;;;;;;5008860;28;20204;-77
2022/08/02 11:56:10;;;;;;;1.55;1.08;;;29.10;54.10;;;;;;5008789;28;20199;-77
2022/08/02 11:58:37;;;;;;;2.35;1.77;;;29.20;53.50;;;;;;4960126;28;20563;-77
2022/08/02 12:01:03;;;;;;;1.02;1.02;;;29.10;53.20;;;;;;4992677;28;20175;-76
2022/08/02 12:03:36;;;;;;;1.13;1.02;;;29.10;54.70;;;;;;4993695;28;20164;-78
2022/08/02 12:06:04;;;;;;;1.13;1.10;;;29.70;56.00;;;;;;4976578;28;20199;-77
2022/08/02 12:08:30;;;;;;;1.40;1.23;;;29.80;51.70;;;;;;4991778;28;20214;-76
2022/08/02 12:13:45;;;;;;;1.20;1.00;;;30.10;51.30;;;;;;5744528;22;20289;-76
2022/08/02 12:21:41;;;;;;;1.48;1.20;;;30.10;51.40;;;;;;4993297;28;20237;-76
2022/08/02 12:24:06;;;;;;;2.10;1.13;;;30.30;49.60;;;;;;4959559;28;20643;-76
2022/08/02 12:26:46;;;;;;;1.30;1.20;;;30.10;48.90;;;;;;4943268;28;20195;-76
2022/08/02 12:29:12;;;;;;;1.27;1.17;;;30.40;53.10;;;;;;4975683;28;20187;-77
2022/08/02 12:31:47;;;;;;;1.70;1.30;;;30.70;50.80;;;;;;4959579;28;20175;-77
2022/08/02 12:34:19;;;;;;;1.60;1.20;;;31.00;49.60;;;;;;4960726;28;20555;-76
2022/08/02 12:36:56;;;;;;;1.55;1.30;;;31.10;46.60;;;;;;4975152;28;20191;-76
2022/08/02 12:39:42;;;;;;;1.55;1.20;;;30.50;46.90;;;;;;4975467;28;20178;-75
2022/08/02 12:42:10;;;;;;;2.55;1.42;;;30.30;48.60;;;;;;4992907;28;20164;-76
2022/08/02 12:44:53;;;;;;;1.40;1.30;;;30.50;49.60;;;;;;4943226;28;20270;-76
2022/08/02 12:47:20;;;;;;;0.93;0.90;;;31.10;50.70;;;;;;4975093;28;20681;-76
2022/08/02 12:49:47;;;;;;;0.40;0.40;;;31.50;47.00;;;;;;4960941;28;20183;-76
2022/08/02 12:52:23;;;;;;;0.47;0.47;;;31.70;45.60;;;;;;4979519;28;20176;-76
2022/08/02 12:54:49;;;;;;;2.08;0.60;;;31.60;45.10;;;;;;4963611;28;20211;-76
2022/08/02 12:57:18;;;;;;;0.70;0.70;;;31.50;45.80;;;;;;4979108;28;20617;-76
2022/08/02 12:59:51;;;;;;;2.10;0.65;;;31.20;46.40;;;;;;4979201;28;20178;-76
2022/08/02 13:02:16;;;;;;;0.70;0.70;;;31.10;46.10;;;;;;4979447;28;20171;-76
2022/08/02 13:04:42;;;;;;;0.98;0.88;;;31.30;47.20;;;;;;4963084;28;20234;-76
2022/08/02 13:07:08;;;;;;;0.95;0.88;;;31.50;44.80;;;;;;4962773;28;20211;-76
2022/08/02 13:09:36;;;;;;;1.08;0.80;;;31.10;43.70;;;;;;4979181;28;20171;-76
2022/08/02 13:12:03;;;;;;;1.50;0.70;;;31.10;45.40;;;;;;4996354;28;20172;-76
2022/08/02 13:14:29;;;;;;;0.82;0.80;;;30.80;44.40;;;;;;4978915;28;20226;-76